Rocky Hill, Connecticut
Current Conditions -  °F | °C
As of 11:53 PM on Friday 19 Dec 2014 (Local Time) from KHFD Reporting Station
Scattered Clouds Scattered Clouds  
Wind Chill: 21°   Ceiling: Unl
Heat Index: 29°   Visibility: 10mi
Dew Point: 20°   Wind: 8mph
Humidity: 69%   Direction: 340°NNW
Pressure: 30.17"   Gusts: NA
Location:  41.67°N, 72.64°W
Report Text: KHFD 200453Z AUTO 34007KT 10SM SCT031 M02/M07 A3017 RMK AO2 SLP216 T10171067 400281017
Loading
Personal Weather Stations






























Interactive Weather Map New forecast layout! Learn more

10-Day Weather Forecast

Advertisements
Track Severe Weather on mobile